createdAt,value
2019-01-11T00:00:26.654Z,2.50
2019-01-11T00:02:31.310Z,2.50
2019-01-11T00:04:36.343Z,2.50
2019-01-11T00:06:41.600Z,2.50
2019-01-11T00:08:46.035Z,2.60
2019-01-11T00:10:50.777Z,2.60
2019-01-11T00:12:56.072Z,2.60
2019-01-11T00:15:00.575Z,2.60
2019-01-11T00:17:07.739Z,2.60
2019-01-11T00:19:12.444Z,2.60
2019-01-11T00:21:17.732Z,2.70
2019-01-11T00:23:22.676Z,2.60
2019-01-11T00:25:27.648Z,2.70
2019-01-11T00:27:32.085Z,2.70
2019-01-11T00:29:37.384Z,2.60
2019-01-11T00:31:41.908Z,2.70
2019-01-11T00:33:49.077Z,2.70
2019-01-11T00:35:53.944Z,2.70
2019-01-11T00:37:59.033Z,2.60
2019-01-11T00:40:05.833Z,2.70
2019-01-11T00:42:10.353Z,2.70
2019-01-11T00:44:14.795Z,2.70
2019-01-11T00:46:19.198Z,2.70
2019-01-11T00:48:27.545Z,2.60
2019-01-11T00:50:38.877Z,2.60
2019-01-11T00:52:44.074Z,2.70
2019-01-11T00:54:48.888Z,2.70
2019-01-11T00:56:53.263Z,2.70
2019-01-11T00:58:58.063Z,2.70
2019-01-11T01:01:02.618Z,2.70
2019-01-11T01:03:08.335Z,2.70
2019-01-11T01:05:12.942Z,2.60
2019-01-11T01:07:17.791Z,2.70
2019-01-11T01:09:24.579Z,2.70
2019-01-11T01:11:33.328Z,2.70
2019-01-11T01:13:39.574Z,2.70
2019-01-11T01:15:45.162Z,2.70
2019-01-11T01:17:50.831Z,2.70
2019-01-11T01:20:01.997Z,2.70
2019-01-11T01:22:06.523Z,2.70
2019-01-11T01:24:12.800Z,2.70
2019-01-11T01:26:17.233Z,2.70
2019-01-11T01:28:23.069Z,2.70
2019-01-11T01:30:28.788Z,2.60
2019-01-11T01:32:33.999Z,2.60
2019-01-11T01:34:38.431Z,2.70
2019-01-11T01:36:43.263Z,2.60
2019-01-11T01:38:47.893Z,2.60
2019-01-11T01:40:52.404Z,2.60
2019-01-11T01:43:00.972Z,2.60
2019-01-11T01:45:13.446Z,2.60
2019-01-11T01:47:18.187Z,2.60
2019-01-11T01:49:26.493Z,2.60
2019-01-11T01:51:29.556Z,2.50
2019-01-11T01:53:34.454Z,2.50
2019-01-11T01:55:39.273Z,2.50
2019-01-11T01:57:43.768Z,2.60
2019-01-11T01:59:51.011Z,2.50
2019-01-11T02:01:55.436Z,2.60
2019-01-11T02:04:00.625Z,2.50
2019-01-11T02:06:05.190Z,2.60
2019-01-11T02:08:13.715Z,2.60
2019-01-11T02:10:18.453Z,2.50
2019-01-11T02:12:26.324Z,2.50
2019-01-11T02:14:30.744Z,2.50
2019-01-11T02:16:35.511Z,2.60
2019-01-11T02:18:42.001Z,2.60
2019-01-11T02:20:46.839Z,2.50
2019-01-11T02:22:51.622Z,2.60
2019-01-11T02:24:56.121Z,2.60
2019-01-11T02:27:00.611Z,2.60
2019-01-11T02:29:05.401Z,2.50
2019-01-11T02:31:10.252Z,2.50
2019-01-11T02:33:14.734Z,2.50
2019-01-11T02:35:19.156Z,2.50
2019-01-11T02:37:23.607Z,2.60
2019-01-11T02:39:28.564Z,2.50
2019-01-11T02:41:33.335Z,2.50
2019-01-11T02:43:37.723Z,2.50
2019-01-11T02:45:42.668Z,2.50
2019-01-11T02:47:47.986Z,2.50
2019-01-11T02:49:52.798Z,2.50
2019-01-11T02:51:57.508Z,2.50
2019-01-11T02:54:07.200Z,2.50
2019-01-11T02:56:11.574Z,2.50
2019-01-11T02:58:21.445Z,2.50
2019-01-11T03:00:31.195Z,2.50
2019-01-11T03:02:35.877Z,2.50
2019-01-11T03:04:43.802Z,2.50
2019-01-11T03:06:49.123Z,2.50
2019-01-11T03:08:53.909Z,2.50
2019-01-11T03:10:58.337Z,2.50
2019-01-11T03:13:04.427Z,2.50
2019-01-11T03:15:09.255Z,2.50
2019-01-11T03:17:13.715Z,2.50
2019-01-11T03:19:20.547Z,2.50
2019-01-11T03:21:24.950Z,2.60
2019-01-11T03:23:32.233Z,2.60
2019-01-11T03:25:40.231Z,2.60
2019-01-11T03:27:45.828Z,2.60
2019-01-11T03:29:50.431Z,2.60
2019-01-11T03:31:56.366Z,2.60
2019-01-11T03:34:00.928Z,2.60
2019-01-11T03:36:05.384Z,2.60
2019-01-11T03:38:09.962Z,2.60
2019-01-11T03:40:15.145Z,2.60
2019-01-11T03:42:22.369Z,2.70
2019-01-11T03:44:27.231Z,2.70
2019-01-11T03:46:31.786Z,2.60
2019-01-11T03:48:36.688Z,2.60
2019-01-11T03:50:41.158Z,2.60
2019-01-11T03:52:45.609Z,2.60
2019-01-11T03:54:52.743Z,2.60
2019-01-11T03:56:57.304Z,2.60
2019-01-11T03:59:04.045Z,2.60
2019-01-11T04:01:08.498Z,2.60
2019-01-11T04:03:12.955Z,2.70
2019-01-11T04:05:20.286Z,2.70
2019-01-11T04:07:25.018Z,2.70
2019-01-11T04:09:31.052Z,2.70
2019-01-11T04:11:36.984Z,2.70
2019-01-11T04:13:41.381Z,2.70
2019-01-11T04:15:46.156Z,2.70
2019-01-11T04:18:08.888Z,2.70
2019-01-11T04:20:16.318Z,2.70
2019-01-11T04:22:27.785Z,2.70
2019-01-11T04:24:40.919Z,2.70
2019-01-11T04:26:47.900Z,2.70
2019-01-11T04:28:52.327Z,2.70
2019-01-11T04:30:56.789Z,2.70
2019-01-11T04:33:05.053Z,2.70
2019-01-11T04:35:12.662Z,2.80
2019-01-11T04:37:18.664Z,2.70
2019-01-11T04:39:23.051Z,2.80
2019-01-11T04:41:27.564Z,2.70
2019-01-11T04:43:32.216Z,2.80
2019-01-11T04:45:36.816Z,2.80
2019-01-11T04:47:42.289Z,2.80
2019-01-11T04:49:46.786Z,2.80
2019-01-11T04:51:51.396Z,2.80
2019-01-11T04:53:57.591Z,2.80
2019-01-11T04:56:05.498Z,2.80
2019-01-11T04:58:09.955Z,2.80
2019-01-11T05:00:23.470Z,2.80
2019-01-11T05:02:28.306Z,2.80
2019-01-11T05:04:32.901Z,2.90
2019-01-11T05:06:37.639Z,2.90
2019-01-11T05:08:42.932Z,2.90
2019-01-11T05:10:49.635Z,2.80
2019-01-11T05:12:57.711Z,2.80
2019-01-11T05:15:02.656Z,2.80
2019-01-11T05:17:09.068Z,2.80
2019-01-11T05:19:13.637Z,2.80
2019-01-11T05:21:18.090Z,2.80
2019-01-11T05:23:22.770Z,2.90
2019-01-11T05:25:28.517Z,2.90
2019-01-11T05:27:32.958Z,3.00
2019-01-11T05:29:37.448Z,2.90
2019-01-11T05:31:42.062Z,3.00
2019-01-11T05:33:50.062Z,3.00
2019-01-11T05:35:54.516Z,3.00
2019-01-11T05:37:59.127Z,3.00
2019-01-11T05:40:04.864Z,2.90
2019-01-11T05:42:09.919Z,2.90
2019-01-11T05:44:17.449Z,2.90
2019-01-11T05:46:22.393Z,3.00
2019-01-11T05:48:26.829Z,2.90
2019-01-11T05:50:31.750Z,3.00
2019-01-11T05:52:36.400Z,3.00
2019-01-11T05:54:40.875Z,3.10
2019-01-11T05:56:48.813Z,3.00
2019-01-11T05:58:57.185Z,3.00
2019-01-11T06:01:02.177Z,3.00
2019-01-11T06:03:09.036Z,3.00
2019-01-11T06:05:13.109Z,3.00
2019-01-11T06:07:21.620Z,3.00
2019-01-11T06:09:27.915Z,3.10
2019-01-11T06:11:34.167Z,3.10
2019-01-11T06:13:39.204Z,3.10
2019-01-11T06:15:43.982Z,3.10
2019-01-11T06:17:48.791Z,3.10
2019-01-11T06:19:53.917Z,3.10
2019-01-11T06:21:58.675Z,3.10
2019-01-11T06:24:04.584Z,3.10
2019-01-11T06:26:09.265Z,3.10
2019-01-11T06:28:14.108Z,3.10
2019-01-11T06:30:21.757Z,3.10
2019-01-11T06:32:38.797Z,3.10
2019-01-11T06:34:44.999Z,3.10
2019-01-11T06:36:52.758Z,3.10
2019-01-11T06:38:59.179Z,3.20
2019-01-11T06:41:04.237Z,3.20
2019-01-11T06:43:09.115Z,3.20
2019-01-11T06:45:13.848Z,3.20
2019-01-11T06:47:18.536Z,3.30
2019-01-11T06:49:22.909Z,3.30
2019-01-11T06:51:30.485Z,3.20
2019-01-11T06:53:35.139Z,3.20
2019-01-11T06:55:40.350Z,3.30
2019-01-11T06:57:45.163Z,3.30
2019-01-11T06:59:54.035Z,3.30
2019-01-11T07:01:59.785Z,3.20
2019-01-11T07:04:04.217Z,3.20
2019-01-11T07:06:11.385Z,3.30
2019-01-11T07:08:16.054Z,3.30
2019-01-11T07:10:22.845Z,3.30
2019-01-11T07:12:27.060Z,3.30
2019-01-11T07:14:31.718Z,3.30
2019-01-11T07:16:36.856Z,3.30
2019-01-11T07:18:42.926Z,3.30
2019-01-11T07:20:47.281Z,3.30
2019-01-11T07:22:52.543Z,3.30
2019-01-11T07:25:00.351Z,3.30
2019-01-11T07:27:04.816Z,3.30
2019-01-11T07:29:09.632Z,3.40
2019-01-11T07:31:15.687Z,3.30
2019-01-11T07:33:21.672Z,3.30
2019-01-11T07:35:36.427Z,3.40
2019-01-11T07:37:41.002Z,3.40
2019-01-11T07:39:45.409Z,3.40
2019-01-11T07:41:50.156Z,3.40
2019-01-11T07:43:54.610Z,3.50
2019-01-11T07:46:02.010Z,3.50
2019-01-11T07:48:09.698Z,3.50
2019-01-11T07:50:16.868Z,3.50
2019-01-11T07:52:21.285Z,3.50
2019-01-11T07:54:25.711Z,3.50
2019-01-11T07:56:30.136Z,3.50
2019-01-11T07:58:36.340Z,3.40
2019-01-11T08:00:43.902Z,3.50
2019-01-11T08:02:48.355Z,3.50
2019-01-11T08:04:52.739Z,3.50
2019-01-11T08:06:57.244Z,3.60
2019-01-11T08:09:01.874Z,3.50
2019-01-11T08:11:06.698Z,3.50
2019-01-11T08:13:12.271Z,3.50
2019-01-11T08:15:19.045Z,3.60
2019-01-11T08:17:23.487Z,3.50
2019-01-11T08:19:27.800Z,3.50
2019-01-11T08:21:32.316Z,3.50
2019-01-11T08:23:37.174Z,3.50
2019-01-11T08:25:43.835Z,3.60
2019-01-11T08:27:48.479Z,3.60
2019-01-11T08:29:52.946Z,3.60
2019-01-11T08:31:57.495Z,3.60
2019-01-11T08:34:04.972Z,3.60
2019-01-11T08:36:09.331Z,3.70
2019-01-11T08:38:14.548Z,3.70
2019-01-11T08:40:18.974Z,3.70
2019-01-11T08:42:23.353Z,3.70
2019-01-11T08:44:28.479Z,3.80
2019-01-11T08:46:33.234Z,3.70
2019-01-11T08:48:38.026Z,3.70
2019-01-11T08:50:42.354Z,3.80
2019-01-11T08:52:46.903Z,3.80
2019-01-11T08:54:51.564Z,3.80
2019-01-11T08:56:56.013Z,3.80
2019-01-11T08:59:00.509Z,3.80
2019-01-11T09:01:05.325Z,3.80
2019-01-11T09:03:10.157Z,3.80
2019-01-11T09:05:14.630Z,3.80
2019-01-11T09:07:19.484Z,3.90
2019-01-11T09:09:24.466Z,3.90
2019-01-11T09:11:28.919Z,3.90
2019-01-11T09:13:35.654Z,3.90
2019-01-11T09:15:40.452Z,4.00
2019-01-11T09:18:02.262Z,4.00
2019-01-11T09:20:06.935Z,3.90
2019-01-11T09:22:11.351Z,4.00
2019-01-11T09:24:18.019Z,4.00
2019-01-11T09:26:24.390Z,4.00
2019-01-11T09:28:31.268Z,4.10
2019-01-11T09:30:35.707Z,4.10
2019-01-11T09:32:40.074Z,4.20
2019-01-11T09:34:44.493Z,4.10
2019-01-11T09:36:50.351Z,4.10
2019-01-11T09:38:56.691Z,4.10
2019-01-11T09:41:01.506Z,4.10
2019-01-11T09:43:06.057Z,4.20
2019-01-11T09:45:10.623Z,4.20
2019-01-11T09:47:15.103Z,4.20
2019-01-11T09:49:19.856Z,4.30
2019-01-11T09:51:26.085Z,4.40
2019-01-11T09:53:31.313Z,4.30
2019-01-11T09:55:35.770Z,4.30
2019-01-11T09:57:40.149Z,4.30
2019-01-11T09:59:45.452Z,4.30
2019-01-11T10:02:02.778Z,4.30
2019-01-11T10:04:08.834Z,4.30
2019-01-11T10:06:13.260Z,4.30
2019-01-11T10:08:27.611Z,4.40
2019-01-11T10:10:33.703Z,4.40
2019-01-11T10:12:38.122Z,4.30
2019-01-11T10:14:42.562Z,4.30
2019-01-11T10:16:47.149Z,4.30
2019-01-11T10:18:51.635Z,4.40
2019-01-11T10:20:59.718Z,4.40
2019-01-11T10:23:04.225Z,4.50
2019-01-11T10:25:11.906Z,4.50
2019-01-11T10:27:17.198Z,4.50
2019-01-11T10:29:21.565Z,4.50
2019-01-11T10:31:25.923Z,4.60
2019-01-11T10:33:35.972Z,4.60
2019-01-11T10:35:36.558Z,4.70
2019-01-11T10:37:41.363Z,4.70
2019-01-11T10:39:47.575Z,4.70
2019-01-11T10:41:52.042Z,4.70
2019-01-11T10:43:56.640Z,4.70
2019-01-11T10:46:03.431Z,4.70
2019-01-11T10:48:07.967Z,4.80
2019-01-11T10:50:14.545Z,4.90
2019-01-11T10:52:19.355Z,4.90
2019-01-11T10:54:42.444Z,5.00
2019-01-11T10:56:50.316Z,5.10
2019-01-11T10:58:55.478Z,5.20
2019-01-11T11:01:01.033Z,5.20
2019-01-11T11:03:07.937Z,5.20
2019-01-11T11:05:12.588Z,5.20
2019-01-11T11:07:17.433Z,5.20
2019-01-11T11:09:21.824Z,5.10
2019-01-11T11:11:27.305Z,5.10
2019-01-11T11:13:32.413Z,5.10
2019-01-11T11:15:38.359Z,5.10
2019-01-11T11:17:42.812Z,5.10
2019-01-11T11:19:47.136Z,5.10
2019-01-11T11:21:51.547Z,5.10
2019-01-11T11:23:56.085Z,5.10
2019-01-11T11:26:00.524Z,5.10
2019-01-11T11:28:04.896Z,5.00
2019-01-11T11:30:11.128Z,5.10
2019-01-11T11:32:17.558Z,5.20
2019-01-11T11:34:28.407Z,5.30
2019-01-11T11:36:33.279Z,5.30
2019-01-11T11:38:37.637Z,5.20
2019-01-11T11:40:43.056Z,5.30
2019-01-11T11:42:47.488Z,5.30
2019-01-11T11:44:51.944Z,5.30
2019-01-11T11:46:56.367Z,5.40
2019-01-11T11:49:00.817Z,5.40
2019-01-11T11:51:05.288Z,5.40
2019-01-11T11:53:09.702Z,5.40
2019-01-11T11:55:17.142Z,5.40
2019-01-11T11:57:21.659Z,5.50
2019-01-11T11:59:26.157Z,5.70
2019-01-11T12:01:33.491Z,5.70
2019-01-11T12:03:38.139Z,5.70
2019-01-11T12:05:44.062Z,5.60
2019-01-11T12:07:49.003Z,5.60
2019-01-11T12:09:54.224Z,5.50
2019-01-11T12:11:58.872Z,5.50
2019-01-11T12:14:03.311Z,5.50
2019-01-11T12:16:07.964Z,5.60
2019-01-11T12:18:12.648Z,5.60
2019-01-11T12:20:36.787Z,5.70
2019-01-11T12:22:41.145Z,5.70
2019-01-11T12:24:45.875Z,5.70
2019-01-11T12:26:50.262Z,5.70
2019-01-11T12:28:55.424Z,5.80
2019-01-11T12:31:00.149Z,5.70
2019-01-11T12:33:04.695Z,5.70
2019-01-11T12:35:09.119Z,5.80
2019-01-11T12:37:13.486Z,5.70
2019-01-11T12:39:17.865Z,5.80
2019-01-11T12:41:23.209Z,5.90
2019-01-11T12:43:27.596Z,5.90
2019-01-11T12:45:32.360Z,5.90
2019-01-11T12:47:36.743Z,5.90
2019-01-11T12:49:43.184Z,6.00
2019-01-11T12:51:53.868Z,5.90
2019-01-11T12:53:54.378Z,6.00
2019-01-11T12:55:59.012Z,5.90
2019-01-11T12:58:03.806Z,6.00
2019-01-11T13:00:15.404Z,5.90
2019-01-11T13:02:19.822Z,5.90
2019-01-11T13:04:24.681Z,5.90
2019-01-11T13:06:29.725Z,5.90
2019-01-11T13:08:35.295Z,5.90
2019-01-11T13:10:40.118Z,5.90
2019-01-11T13:12:44.609Z,6.00
2019-01-11T13:14:49.159Z,6.00
2019-01-11T13:16:53.622Z,6.10
2019-01-11T13:18:58.228Z,6.10
2019-01-11T13:21:03.039Z,6.10
2019-01-11T13:23:07.899Z,6.10
2019-01-11T13:25:13.847Z,6.20
2019-01-11T13:27:18.308Z,6.20
2019-01-11T13:29:22.934Z,6.10
2019-01-11T13:31:27.495Z,6.20
2019-01-11T13:33:31.989Z,6.20
2019-01-11T13:35:38.504Z,6.20
2019-01-11T13:37:42.927Z,6.20
2019-01-11T13:39:47.383Z,6.30
2019-01-11T13:41:51.979Z,6.40
2019-01-11T13:43:57.130Z,6.40
2019-01-11T13:46:01.978Z,6.50
2019-01-11T13:48:06.985Z,6.40
2019-01-11T13:50:17.622Z,6.40
2019-01-11T13:52:22.099Z,6.30
2019-01-11T13:54:28.224Z,6.40
2019-01-11T13:56:33.167Z,6.50
2019-01-11T13:58:38.135Z,6.40
2019-01-11T14:00:45.985Z,6.50
2019-01-11T14:02:50.670Z,6.40
2019-01-11T14:04:56.884Z,6.50
2019-01-11T14:07:01.345Z,6.50
2019-01-11T14:09:08.627Z,6.50
2019-01-11T14:11:15.902Z,6.40
2019-01-11T14:13:21.793Z,6.50
2019-01-11T14:15:26.180Z,6.50
2019-01-11T14:17:30.652Z,6.60
2019-01-11T14:19:35.096Z,6.60
2019-01-11T14:21:39.552Z,6.70
2019-01-11T14:23:44.007Z,6.60
2019-01-11T14:25:48.854Z,6.60
2019-01-11T14:27:53.263Z,6.50
2019-01-11T14:29:57.737Z,6.70
2019-01-11T14:32:02.156Z,6.80
2019-01-11T14:34:06.856Z,6.80
2019-01-11T14:36:11.377Z,6.80
2019-01-11T14:38:15.861Z,6.90
2019-01-11T14:40:20.428Z,6.90
2019-01-11T14:42:25.851Z,6.90
2019-01-11T14:44:30.659Z,7.00
2019-01-11T14:46:36.225Z,7.00
2019-01-11T14:48:40.630Z,7.00
2019-01-11T14:50:45.135Z,6.90
2019-01-11T14:52:49.580Z,6.90
2019-01-11T14:54:54.096Z,6.90
2019-01-11T14:56:58.605Z,7.00
2019-01-11T14:59:03.966Z,6.90
2019-01-11T15:01:11.969Z,6.90
2019-01-11T15:03:16.757Z,6.90
2019-01-11T15:05:24.082Z,6.90
2019-01-11T15:07:28.570Z,6.90
2019-01-11T15:09:33.083Z,7.00
2019-01-11T15:11:37.448Z,6.90
2019-01-11T15:13:41.930Z,7.00
2019-01-11T15:15:54.458Z,7.00
2019-01-11T15:18:01.138Z,7.00
2019-01-11T15:20:07.534Z,7.00
2019-01-11T15:22:12.724Z,7.00
2019-01-11T15:24:17.601Z,7.10
2019-01-11T15:26:22.144Z,7.00
2019-01-11T15:28:26.611Z,7.10
2019-01-11T15:30:32.569Z,7.10
2019-01-11T15:32:37.134Z,7.10
2019-01-11T15:34:41.990Z,7.10
2019-01-11T15:36:46.561Z,7.10
2019-01-11T15:38:50.986Z,7.10
2019-01-11T15:40:55.840Z,7.10
2019-01-11T15:43:01.651Z,7.10
2019-01-11T15:45:10.500Z,7.10
2019-01-11T15:47:19.308Z,7.10
2019-01-11T15:49:24.791Z,7.10
2019-01-11T15:51:31.086Z,7.10
2019-01-11T15:53:37.590Z,7.30
2019-01-11T15:55:45.262Z,7.30
2019-01-11T15:57:49.815Z,7.30
2019-01-11T16:00:02.135Z,7.20
2019-01-11T16:02:06.657Z,7.20
2019-01-11T16:04:12.599Z,7.20
2019-01-11T16:06:36.473Z,7.10
2019-01-11T16:09:23.896Z,7.30
2019-01-11T16:11:48.436Z,7.10
2019-01-11T16:14:19.878Z,7.10
2019-01-11T16:17:05.386Z,7.10
2019-01-11T16:21:57.062Z,7.30
2019-01-11T16:24:02.589Z,7.20
2019-01-11T16:26:11.156Z,7.10
2019-01-11T16:28:16.591Z,7.20
2019-01-11T16:30:21.080Z,7.20
2019-01-11T16:32:25.538Z,7.30
2019-01-11T16:34:32.751Z,7.20
2019-01-11T16:36:37.217Z,7.20
2019-01-11T16:38:43.295Z,7.20
2019-01-11T16:40:48.187Z,7.20
2019-01-11T16:42:53.792Z,7.20
2019-01-11T16:44:59.563Z,7.20
2019-01-11T16:47:04.957Z,7.10
2019-01-11T16:49:13.234Z,7.10
2019-01-11T16:51:20.077Z,7.10
2019-01-11T16:53:25.410Z,7.10
2019-01-11T16:55:30.136Z,7.10
2019-01-11T16:57:37.600Z,7.00
2019-01-11T16:59:42.282Z,7.00
2019-01-11T17:01:49.942Z,7.10
2019-01-11T17:03:56.341Z,7.10
2019-01-11T17:06:01.895Z,7.10
2019-01-11T17:08:10.165Z,7.10
2019-01-11T17:10:17.413Z,7.10
2019-01-11T17:12:28.645Z,7.10
2019-01-11T17:14:33.488Z,7.10
2019-01-11T17:16:37.823Z,7.00
2019-01-11T17:18:42.162Z,7.00
2019-01-11T17:20:48.752Z,7.10
2019-01-11T17:22:53.439Z,7.10
2019-01-11T17:25:01.514Z,7.10
2019-01-11T17:27:05.984Z,7.10
2019-01-11T17:29:11.429Z,7.00
2019-01-11T17:31:17.356Z,7.00
2019-01-11T17:33:22.217Z,7.00
2019-01-11T17:35:26.745Z,7.10
2019-01-11T17:37:31.372Z,7.10
2019-01-11T17:39:35.863Z,7.00
2019-01-11T17:41:40.325Z,7.00
2019-01-11T17:43:45.199Z,7.00
2019-01-11T17:45:50.652Z,7.00
2019-01-11T17:47:55.143Z,7.00
2019-01-11T17:50:01.215Z,7.10
2019-01-11T17:52:08.318Z,7.00
2019-01-11T17:54:13.257Z,7.00
2019-01-11T17:56:17.742Z,7.00
2019-01-11T17:58:24.557Z,7.00
2019-01-11T18:00:28.919Z,7.00
2019-01-11T18:02:33.847Z,7.00
2019-01-11T18:04:38.631Z,7.10
2019-01-11T18:06:43.425Z,7.10
2019-01-11T18:08:47.979Z,7.00
2019-01-11T18:10:52.488Z,7.10
2019-01-11T18:12:57.012Z,7.10
2019-01-11T18:15:01.636Z,7.10
2019-01-11T18:17:06.527Z,7.10
2019-01-11T18:19:11.305Z,7.10
2019-01-11T18:21:16.997Z,7.20
2019-01-11T18:23:21.777Z,7.10
2019-01-11T18:25:26.281Z,7.10
2019-01-11T18:27:33.661Z,7.10
2019-01-11T18:29:38.156Z,7.00
2019-01-11T18:31:47.066Z,7.00
2019-01-11T18:33:51.633Z,7.00
2019-01-11T18:35:58.835Z,7.10
2019-01-11T18:38:03.371Z,7.00
2019-01-11T18:40:16.700Z,7.00
2019-01-11T18:42:22.365Z,7.00
2019-01-11T18:44:27.238Z,6.90
2019-01-11T18:46:32.361Z,6.90
2019-01-11T18:48:38.415Z,7.00
2019-01-11T18:50:43.903Z,6.90
2019-01-11T18:52:51.430Z,6.90
2019-01-11T18:54:56.169Z,6.90
2019-01-11T18:57:00.682Z,6.90
2019-01-11T18:59:09.507Z,6.90
2019-01-11T19:01:14.259Z,7.00
2019-01-11T19:03:18.805Z,7.10
2019-01-11T19:05:23.321Z,7.00
2019-01-11T19:07:27.842Z,7.00
2019-01-11T19:09:37.451Z,7.00
2019-01-11T19:11:43.187Z,7.00
2019-01-11T19:13:47.766Z,7.00
2019-01-11T19:15:55.062Z,7.00
2019-01-11T19:17:59.590Z,7.00
2019-01-11T19:20:07.619Z,7.00
2019-01-11T19:22:15.145Z,6.90
2019-01-11T19:24:19.789Z,6.90
2019-01-11T19:26:27.071Z,6.90
2019-01-11T19:28:35.363Z,6.90
2019-01-11T19:30:40.239Z,7.00
2019-01-11T19:32:44.818Z,6.90
2019-01-11T19:34:49.871Z,6.90
2019-01-11T19:36:55.512Z,7.00
2019-01-11T19:39:02.394Z,6.90
2019-01-11T19:41:07.007Z,6.90
2019-01-11T19:43:11.741Z,6.90
2019-01-11T19:45:16.283Z,6.90
2019-01-11T19:47:21.005Z,6.90
2019-01-11T19:49:26.888Z,6.90
2019-01-11T19:51:32.008Z,6.90
2019-01-11T19:53:36.891Z,6.90
2019-01-11T19:55:46.662Z,6.90
2019-01-11T19:57:56.104Z,6.90
2019-01-11T20:00:03.269Z,6.90
2019-01-11T20:02:07.950Z,6.90
2019-01-11T20:04:14.354Z,6.90
2019-01-11T20:06:22.001Z,6.90
2019-01-11T20:08:26.908Z,7.00
2019-01-11T20:10:33.441Z,6.90
2019-01-11T20:12:39.822Z,6.90
2019-01-11T20:14:47.218Z,6.90
2019-01-11T20:16:56.054Z,6.90
2019-01-11T20:19:04.894Z,6.90
2019-01-11T20:21:11.489Z,6.90
2019-01-11T20:23:17.670Z,7.00
2019-01-11T20:25:24.064Z,7.00
2019-01-11T20:27:29.087Z,6.90
2019-01-11T20:29:37.881Z,6.90
2019-01-11T20:31:44.302Z,6.90
2019-01-11T20:33:51.074Z,6.90
2019-01-11T20:35:59.015Z,6.90
2019-01-11T20:38:06.961Z,6.80
2019-01-11T20:40:15.465Z,6.90
2019-01-11T20:42:21.141Z,7.00
2019-01-11T20:44:26.930Z,6.90
2019-01-11T20:46:33.787Z,6.90
2019-01-11T20:48:41.888Z,6.90
2019-01-11T20:50:50.730Z,6.90
2019-01-11T20:52:59.411Z,6.90
2019-01-11T20:55:05.432Z,6.90
2019-01-11T20:57:10.344Z,6.80
2019-01-11T20:59:21.277Z,6.80
2019-01-11T21:01:28.138Z,6.80
2019-01-11T21:03:35.235Z,6.80
2019-01-11T21:05:42.104Z,6.80
2019-01-11T21:07:47.014Z,6.80
2019-01-11T21:09:54.010Z,6.80
2019-01-11T21:12:01.017Z,6.70
2019-01-11T21:14:23.692Z,6.80
2019-01-11T21:16:28.978Z,6.80
2019-01-11T21:18:34.550Z,6.70
2019-01-11T21:20:39.551Z,6.80
2019-01-11T21:22:46.234Z,6.70
2019-01-11T21:24:59.996Z,6.80
2019-01-11T21:27:04.930Z,6.80
2019-01-11T21:29:11.820Z,6.70
2019-01-11T21:31:19.915Z,6.80
2019-01-11T21:33:26.958Z,6.80
2019-01-11T21:35:34.407Z,6.70
2019-01-11T21:37:41.141Z,6.80
2019-01-11T21:39:48.463Z,6.80
2019-01-11T21:41:53.850Z,6.80
2019-01-11T21:44:00.455Z,6.80
2019-01-11T21:46:05.363Z,6.70
2019-01-11T21:48:10.238Z,6.70
2019-01-11T21:50:16.870Z,6.70
2019-01-11T21:52:22.644Z,6.70
2019-01-11T21:54:30.841Z,6.70
2019-01-11T21:56:35.511Z,6.70
2019-01-11T21:58:40.720Z,6.80
2019-01-11T22:00:47.375Z,6.80
2019-01-11T22:02:52.399Z,6.70
2019-01-11T22:05:00.786Z,6.70
2019-01-11T22:07:05.359Z,6.70
2019-01-11T22:09:10.005Z,6.80
2019-01-11T22:11:14.774Z,6.80
2019-01-11T22:13:19.919Z,6.80
2019-01-11T22:15:24.576Z,6.70
2019-01-11T22:17:30.053Z,6.80
2019-01-11T22:19:34.716Z,6.80
2019-01-11T22:21:40.901Z,6.80
2019-01-11T22:23:45.521Z,6.70
2019-01-11T22:25:50.975Z,6.80
2019-01-11T22:27:55.439Z,6.70
2019-01-11T22:29:59.988Z,6.70
2019-01-11T22:32:04.924Z,6.70
2019-01-11T22:34:09.786Z,6.70
2019-01-11T22:36:20.185Z,6.80
2019-01-11T22:38:25.021Z,6.70
2019-01-11T22:40:29.499Z,6.80
2019-01-11T22:42:35.035Z,6.80
2019-01-11T22:44:40.934Z,6.70
2019-01-11T22:46:45.375Z,6.80
2019-01-11T22:48:50.000Z,6.80
2019-01-11T22:50:55.623Z,6.70
2019-01-11T22:53:00.900Z,6.80
2019-01-11T22:55:08.038Z,6.70
2019-01-11T22:57:13.590Z,6.70
2019-01-11T22:59:18.230Z,6.70
2019-01-11T23:01:52.703Z,6.70
2019-01-11T23:03:57.176Z,6.70
2019-01-11T23:06:09.155Z,6.70
2019-01-11T23:08:17.624Z,6.70
2019-01-11T23:10:52.931Z,6.70
2019-01-11T23:13:03.558Z,6.60
2019-01-11T23:15:12.535Z,6.70
2019-01-11T23:17:46.514Z,6.70
2019-01-11T23:19:51.421Z,6.70
2019-01-11T23:21:57.403Z,6.60
2019-01-11T23:24:01.959Z,6.60
2019-01-11T23:26:06.744Z,6.60
2019-01-11T23:28:15.283Z,6.60
2019-01-11T23:30:19.922Z,6.60
2019-01-11T23:32:28.628Z,6.60
2019-01-11T23:34:33.083Z,6.60
2019-01-11T23:36:39.718Z,6.60
2019-01-11T23:38:45.247Z,6.60
2019-01-11T23:40:50.514Z,6.50
2019-01-11T23:42:56.846Z,6.50
2019-01-11T23:45:01.832Z,6.50
2019-01-11T23:47:06.300Z,6.60
2019-01-11T23:49:10.755Z,6.60
2019-01-11T23:51:19.373Z,6.60
2019-01-11T23:53:30.673Z,6.60
2019-01-11T23:55:36.844Z,6.60
2019-01-11T23:57:43.130Z,6.60
2019-01-11T23:59:50.672Z,6.60
